sensor_id;sensor_type;location;lat;lon;timestamp;pressure;altitude;pressure_sealevel;temperature;humidity
46303;BME280;32029;51.358;5.628;2023-07-24T00:00:01;100213.94;;;20.57;100.00
46303;BME280;32029;51.358;5.628;2023-07-24T00:02:27;100263.19;;;20.83;100.00
46303;BME280;32029;51.358;5.628;2023-07-24T00:04:54;100256.44;;;20.79;100.00
46303;BME280;32029;51.358;5.628;2023-07-24T00:07:21;100247.19;;;20.73;100.00
46303;BME280;32029;51.358;5.628;2023-07-24T02:22:19;100082.97;;;20.62;100.00
46303;BME280;32029;51.358;5.628;2023-07-24T02:24:46;100057.28;;;20.49;100.00
46303;BME280;32029;51.358;5.628;2023-07-24T02:27:23;100080.75;;;20.64;100.00
46303;BME280;32029;51.358;5.628;2023-07-24T02:29:50;100080.19;;;20.67;100.00
46303;BME280;32029;51.358;5.628;2023-07-24T02:32:17;100085.22;;;20.70;100.00
46303;BME280;32029;51.358;5.628;2023-07-24T02:34:44;100048.94;;;20.54;100.00
46303;BME280;32029;51.358;5.628;2023-07-24T02:37:11;100025.41;;;20.35;100.00
46303;BME280;32029;51.358;5.628;2023-07-24T02:39:37;100075.75;;;20.71;100.00
46303;BME280;32029;51.358;5.628;2023-07-24T02:42:04;100018.75;;;20.41;100.00
46303;BME280;32029;51.358;5.628;2023-07-24T02:44:33;100052.59;;;20.65;100.00
46303;BME280;32029;51.358;5.628;2023-07-24T02:47:00;100071.88;;;20.72;100.00
46303;BME280;32029;51.358;5.628;2023-07-24T04:17:17;100037.94;;;18.99;100.00
46303;BME280;32029;51.358;5.628;2023-07-24T04:19:43;100064.03;;;19.20;100.00
46303;BME280;32029;51.358;5.628;2023-07-24T04:22:10;100069.34;;;19.21;100.00
46303;BME280;32029;51.358;5.628;2023-07-24T04:24:37;100069.06;;;19.23;100.00
46303;BME280;32029;51.358;5.628;2023-07-24T04:27:04;100079.94;;;19.24;100.00
46303;BME280;32029;51.358;5.628;2023-07-24T04:29:31;100083.50;;;19.20;100.00
46303;BME280;32029;51.358;5.628;2023-07-24T04:31:57;100110.84;;;19.28;100.00
46303;BME280;32029;51.358;5.628;2023-07-24T04:34:24;100062.72;;;19.00;100.00
46303;BME280;32029;51.358;5.628;2023-07-24T04:36:51;100090.09;;;19.14;100.00
46303;BME280;32029;51.358;5.628;2023-07-24T04:39:17;100088.31;;;19.02;100.00
46303;BME280;32029;51.358;5.628;2023-07-24T05:22:23;100097.19;;;18.77;100.00
46303;BME280;32029;51.358;5.628;2023-07-24T05:24:49;100093.00;;;18.75;100.00
46303;BME280;32029;51.358;5.628;2023-07-24T05:27:16;100103.50;;;18.95;100.00
46303;BME280;32029;51.358;5.628;2023-07-24T05:29:47;100067.78;;;18.81;100.00
46303;BME280;32029;51.358;5.628;2023-07-24T05:32:16;100111.25;;;19.15;100.00
46303;BME280;32029;51.358;5.628;2023-07-24T05:34:45;100090.63;;;19.10;100.00
46303;BME280;32029;51.358;5.628;2023-07-24T05:37:13;100110.00;;;19.27;100.00
46303;BME280;32029;51.358;5.628;2023-07-24T05:39:40;100126.88;;;19.43;100.00
46303;BME280;32029;51.358;5.628;2023-07-24T05:42:07;100119.59;;;19.42;100.00
46303;BME280;32029;51.358;5.628;2023-07-24T05:44:35;100127.22;;;19.51;100.00
46303;BME280;32029;51.358;5.628;2023-07-24T06:41:31;100121.13;;;19.54;100.00
46303;BME280;32029;51.358;5.628;2023-07-24T06:43:58;100055.59;;;19.09;100.00
46303;BME280;32029;51.358;5.628;2023-07-24T06:46:25;100108.59;;;19.52;100.00
46303;BME280;32029;51.358;5.628;2023-07-24T06:48:52;100129.91;;;19.68;100.00
46303;BME280;32029;51.358;5.628;2023-07-24T06:51:18;100105.84;;;19.57;100.00
46303;BME280;32029;51.358;5.628;2023-07-24T06:53:45;100135.81;;;19.77;100.00
46303;BME280;32029;51.358;5.628;2023-07-24T06:56:12;100131.41;;;19.81;100.00
46303;BME280;32029;51.358;5.628;2023-07-24T06:58:40;100135.97;;;19.92;100.00
46303;BME280;32029;51.358;5.628;2023-07-24T07:01:07;100132.13;;;19.98;100.00
46303;BME280;32029;51.358;5.628;2023-07-24T07:03:34;100130.47;;;20.02;100.00
46303;BME280;32029;51.358;5.628;2023-07-24T07:06:03;100120.47;;;20.01;100.00
46303;BME280;32029;51.358;5.628;2023-07-24T07:08:30;100106.03;;;20.10;100.00
46303;BME280;32029;51.358;5.628;2023-07-24T07:10:58;100114.50;;;20.25;100.00
46303;BME280;32029;51.358;5.628;2023-07-24T07:13:25;100122.38;;;20.38;100.00
46303;BME280;32029;51.358;5.628;2023-07-24T07:15:52;100077.69;;;20.18;100.00
46303;BME280;32029;51.358;5.628;2023-07-24T07:18:18;100114.88;;;20.44;100.00
46303;BME280;32029;51.358;5.628;2023-07-24T07:20:46;100123.09;;;20.61;100.00
46303;BME280;32029;51.358;5.628;2023-07-24T07:23:14;100120.91;;;20.68;100.00
46303;BME280;32029;51.358;5.628;2023-07-24T07:25:43;100102.19;;;20.63;100.00
46303;BME280;32029;51.358;5.628;2023-07-24T07:28:15;100083.47;;;20.53;100.00
46303;BME280;32029;51.358;5.628;2023-07-24T07:30:43;100071.75;;;20.51;100.00
46303;BME280;32029;51.358;5.628;2023-07-24T07:33:10;100108.34;;;20.70;100.00
46303;BME280;32029;51.358;5.628;2023-07-24T07:35:37;100098.03;;;20.66;100.00
46303;BME280;32029;51.358;5.628;2023-07-24T07:38:06;100090.81;;;20.70;100.00
46303;BME280;32029;51.358;5.628;2023-07-24T07:40:33;100065.94;;;20.58;100.00
46303;BME280;32029;51.358;5.628;2023-07-24T07:43:00;100105.34;;;20.82;100.00
46303;BME280;32029;51.358;5.628;2023-07-24T07:45:27;100116.56;;;20.92;100.00
46303;BME280;32029;51.358;5.628;2023-07-24T07:47:54;99995.28;;;20.32;100.00
46303;BME280;32029;51.358;5.628;2023-07-24T08:03:53;100089.31;;;21.20;100.00
46303;BME280;32029;51.358;5.628;2023-07-24T08:06:19;100069.22;;;21.28;100.00
46303;BME280;32029;51.358;5.628;2023-07-24T08:08:48;100083.78;;;21.40;100.00
46303;BME280;32029;51.358;5.628;2023-07-24T08:11:14;100079.88;;;21.41;100.00
46303;BME280;32029;51.358;5.628;2023-07-24T08:16:40;100075.44;;;21.56;100.00
46303;BME280;32029;51.358;5.628;2023-07-24T08:19:07;100060.34;;;21.57;100.00
46303;BME280;32029;51.358;5.628;2023-07-24T08:21:34;100079.34;;;21.75;100.00
46303;BME280;32029;51.358;5.628;2023-07-24T08:24:01;100092.75;;;21.73;100.00
46303;BME280;32029;51.358;5.628;2023-07-24T08:26:28;100095.53;;;21.78;100.00
46303;BME280;32029;51.358;5.628;2023-07-24T08:28:55;100093.28;;;21.80;100.00
46303;BME280;32029;51.358;5.628;2023-07-24T08:31:22;100085.50;;;21.82;100.00
46303;BME280;32029;51.358;5.628;2023-07-24T08:33:48;100076.00;;;21.93;100.00
46303;BME280;32029;51.358;5.628;2023-07-24T08:36:15;100081.00;;;22.07;100.00
46303;BME280;32029;51.358;5.628;2023-07-24T08:38:42;100067.03;;;22.12;100.00
46303;BME280;32029;51.358;5.628;2023-07-24T08:41:11;100077.88;;;22.39;100.00
46303;BME280;32029;51.358;5.628;2023-07-24T08:43:40;100093.78;;;22.54;100.00
46303;BME280;32029;51.358;5.628;2023-07-24T08:46:08;100064.47;;;22.41;100.00
46303;BME280;32029;51.358;5.628;2023-07-24T08:48:37;100061.38;;;22.42;100.00
46303;BME280;32029;51.358;5.628;2023-07-24T08:51:06;100084.28;;;22.49;100.00
46303;BME280;32029;51.358;5.628;2023-07-24T08:53:34;100081.53;;;22.34;100.00
46303;BME280;32029;51.358;5.628;2023-07-24T08:56:05;100040.22;;;22.06;100.00
46303;BME280;32029;51.358;5.628;2023-07-24T08:58:33;100082.38;;;22.30;100.00
46303;BME280;32029;51.358;5.628;2023-07-24T09:01:01;100070.91;;;22.31;100.00
46303;BME280;32029;51.358;5.628;2023-07-24T09:03:28;100015.09;;;22.00;100.00
46303;BME280;32029;51.358;5.628;2023-07-24T09:05:56;100073.13;;;22.44;100.00
46303;BME280;32029;51.358;5.628;2023-07-24T09:08:33;100068.63;;;22.59;100.00
46303;BME280;32029;51.358;5.628;2023-07-24T09:11:01;100066.91;;;22.63;100.00
46303;BME280;32029;51.358;5.628;2023-07-24T09:13:29;100062.44;;;22.67;100.00
46303;BME280;32029;51.358;5.628;2023-07-24T09:15:56;100011.06;;;22.42;100.00
46303;BME280;32029;51.358;5.628;2023-07-24T09:18:22;100049.25;;;22.72;100.00
46303;BME280;32029;51.358;5.628;2023-07-24T09:20:49;100014.94;;;22.57;100.00
46303;BME280;32029;51.358;5.628;2023-07-24T09:23:25;100038.56;;;22.90;100.00
46303;BME280;32029;51.358;5.628;2023-07-24T09:25:53;100025.34;;;23.01;100.00
46303;BME280;32029;51.358;5.628;2023-07-24T09:28:19;100024.69;;;23.19;100.00
46303;BME280;32029;51.358;5.628;2023-07-24T09:30:58;100040.81;;;23.32;100.00
46303;BME280;32029;51.358;5.628;2023-07-24T09:33:38;100041.69;;;23.33;99.95
46303;BME280;32029;51.358;5.628;2023-07-24T09:36:08;100030.69;;;23.36;100.00
46303;BME280;32029;51.358;5.628;2023-07-24T09:38:36;100021.66;;;23.50;100.00
46303;BME280;32029;51.358;5.628;2023-07-24T09:41:03;100016.22;;;23.68;98.59
46303;BME280;32029;51.358;5.628;2023-07-24T09:43:31;99950.63;;;23.40;100.00
46303;BME280;32029;51.358;5.628;2023-07-24T09:45:58;99995.41;;;23.75;99.57
46303;BME280;32029;51.358;5.628;2023-07-24T09:48:26;99999.78;;;23.86;98.37
46303;BME280;32029;51.358;5.628;2023-07-24T09:50:55;100007.44;;;23.80;96.69
46303;BME280;32029;51.358;5.628;2023-07-24T09:53:34;100006.38;;;23.71;95.41
46303;BME280;32029;51.358;5.628;2023-07-24T09:56:05;99992.53;;;23.51;98.05
46303;BME280;32029;51.358;5.628;2023-07-24T09:58:37;99990.28;;;23.53;96.42
46303;BME280;32029;51.358;5.628;2023-07-24T10:01:05;100006.03;;;23.43;98.26
46303;BME280;32029;51.358;5.628;2023-07-24T10:03:39;99984.16;;;23.11;96.39
46303;BME280;32029;51.358;5.628;2023-07-24T10:06:08;100020.75;;;23.20;96.50
46303;BME280;32029;51.358;5.628;2023-07-24T10:08:38;100006.88;;;23.05;97.15
46303;BME280;32029;51.358;5.628;2023-07-24T10:11:07;99966.25;;;22.68;98.54
46303;BME280;32029;51.358;5.628;2023-07-24T10:13:34;100017.63;;;22.82;98.50
46303;BME280;32029;51.358;5.628;2023-07-24T10:16:03;100031.66;;;22.72;96.93
46303;BME280;32029;51.358;5.628;2023-07-24T10:18:34;100045.13;;;22.60;98.21
46303;BME280;32029;51.358;5.628;2023-07-24T10:21:06;100035.63;;;22.50;98.27
46303;BME280;32029;51.358;5.628;2023-07-24T10:23:34;100037.34;;;22.41;99.54
46303;BME280;32029;51.358;5.628;2023-07-24T10:26:06;100007.81;;;22.20;100.00
46303;BME280;32029;51.358;5.628;2023-07-24T10:28:42;99979.88;;;21.99;100.00
46303;BME280;32029;51.358;5.628;2023-07-24T10:33:47;100041.88;;;22.22;100.00
46303;BME280;32029;51.358;5.628;2023-07-24T10:36:18;100039.66;;;22.09;100.00
46303;BME280;32029;51.358;5.628;2023-07-24T10:38:46;100048.31;;;22.07;100.00
46303;BME280;32029;51.358;5.628;2023-07-24T10:41:13;100019.00;;;21.84;100.00
46303;BME280;32029;51.358;5.628;2023-07-24T10:43:45;100060.06;;;21.99;100.00
46303;BME280;32029;51.358;5.628;2023-07-24T10:46:14;100058.38;;;21.98;100.00
46303;BME280;32029;51.358;5.628;2023-07-24T10:48:46;100056.72;;;21.97;100.00
46303;BME280;32029;51.358;5.628;2023-07-24T10:51:14;100043.59;;;21.92;100.00
46303;BME280;32029;51.358;5.628;2023-07-24T10:53:45;100015.97;;;21.86;100.00
46303;BME280;32029;51.358;5.628;2023-07-24T10:56:12;100029.66;;;21.92;100.00
46303;BME280;32029;51.358;5.628;2023-07-24T10:58:39;100016.78;;;21.86;100.00
46303;BME280;32029;51.358;5.628;2023-07-24T11:01:07;100037.13;;;22.07;100.00
46303;BME280;32029;51.358;5.628;2023-07-24T11:03:39;100045.78;;;22.26;100.00
46303;BME280;32029;51.358;5.628;2023-07-24T11:06:12;100044.03;;;22.45;100.00
46303;BME280;32029;51.358;5.628;2023-07-24T11:08:40;100028.09;;;22.56;100.00
46303;BME280;32029;51.358;5.628;2023-07-24T11:11:07;100022.72;;;22.65;100.00
46303;BME280;32029;51.358;5.628;2023-07-24T11:13:34;100032.69;;;22.81;100.00
46303;BME280;32029;51.358;5.628;2023-07-24T11:16:06;100063.06;;;23.08;100.00
46303;BME280;32029;51.358;5.628;2023-07-24T11:18:44;100048.22;;;23.18;100.00
46303;BME280;32029;51.358;5.628;2023-07-24T11:21:12;100004.06;;;23.05;100.00
46303;BME280;32029;51.358;5.628;2023-07-24T11:26:24;100070.19;;;23.74;100.00
46303;BME280;32029;51.358;5.628;2023-07-24T11:28:52;100059.44;;;23.86;100.00
46303;BME280;32029;51.358;5.628;2023-07-24T11:31:19;100063.59;;;23.94;100.00
46303;BME280;32029;51.358;5.628;2023-07-24T11:33:47;100028.75;;;23.76;100.00
46303;BME280;32029;51.358;5.628;2023-07-24T11:36:15;100067.47;;;23.98;99.34
46303;BME280;32029;51.358;5.628;2023-07-24T11:38:41;100070.00;;;23.94;100.00
46303;BME280;32029;51.358;5.628;2023-07-24T11:41:11;100072.56;;;23.91;100.00
46303;BME280;32029;51.358;5.628;2023-07-24T11:43:46;100064.53;;;23.84;99.30
46303;BME280;32029;51.358;5.628;2023-07-24T11:46:22;100067.91;;;23.81;98.82
46303;BME280;32029;51.358;5.628;2023-07-24T11:48:50;100050.91;;;23.73;100.00
46303;BME280;32029;51.358;5.628;2023-07-24T11:51:19;100034.88;;;23.78;98.84
46303;BME280;32029;51.358;5.628;2023-07-24T11:53:46;100067.13;;;24.05;96.91
46303;BME280;32029;51.358;5.628;2023-07-24T11:56:14;100060.38;;;24.06;99.21
46303;BME280;32029;51.358;5.628;2023-07-24T11:58:41;100026.91;;;23.90;94.50
46303;BME280;32029;51.358;5.628;2023-07-24T12:01:08;100001.66;;;23.66;95.80
46303;BME280;32029;51.358;5.628;2023-07-24T12:03:35;100003.47;;;23.81;97.90
46303;BME280;32029;51.358;5.628;2023-07-24T12:06:02;100048.00;;;24.12;92.85
46303;BME280;32029;51.358;5.628;2023-07-24T12:08:33;100034.34;;;24.05;93.84
46303;BME280;32029;51.358;5.628;2023-07-24T12:11:02;100030.41;;;24.06;95.07
46303;BME280;32029;51.358;5.628;2023-07-24T12:13:28;100028.91;;;24.14;96.23
46303;BME280;32029;51.358;5.628;2023-07-24T12:15:55;99958.66;;;23.81;97.32
46303;BME280;32029;51.358;5.628;2023-07-24T12:18:22;99996.13;;;24.14;91.76
46303;BME280;32029;51.358;5.628;2023-07-24T12:20:49;99990.75;;;24.18;92.51
46303;BME280;32029;51.358;5.628;2023-07-24T12:23:15;99980.69;;;24.17;86.15
46303;BME280;32029;51.358;5.628;2023-07-24T12:25:43;100026.13;;;24.38;88.93
46303;BME280;32029;51.358;5.628;2023-07-24T12:28:10;100020.09;;;24.26;88.85
46303;BME280;32029;51.358;5.628;2023-07-24T12:30:36;100006.56;;;24.33;90.14
46303;BME280;32029;51.358;5.628;2023-07-24T12:33:03;100034.09;;;24.55;91.33
46303;BME280;32029;51.358;5.628;2023-07-24T12:35:30;99983.53;;;24.36;91.29
46303;BME280;32029;51.358;5.628;2023-07-24T12:37:58;100024.28;;;24.76;91.16
46303;BME280;32029;51.358;5.628;2023-07-24T12:40:25;100014.13;;;24.80;90.18
46303;BME280;32029;51.358;5.628;2023-07-24T12:42:52;99969.59;;;24.55;87.85
46303;BME280;32029;51.358;5.628;2023-07-24T12:45:19;99999.09;;;24.71;89.10
46303;BME280;32029;51.358;5.628;2023-07-24T12:47:45;100009.56;;;24.84;88.36
46303;BME280;32029;51.358;5.628;2023-07-24T12:50:12;99969.16;;;24.66;88.46
46303;BME280;32029;51.358;5.628;2023-07-24T12:52:39;100036.50;;;25.04;87.51
46303;BME280;32029;51.358;5.628;2023-07-24T12:55:05;100009.81;;;24.88;87.30
46303;BME280;32029;51.358;5.628;2023-07-24T12:57:32;100013.69;;;24.73;84.67
46303;BME280;32029;51.358;5.628;2023-07-24T12:59:59;100034.50;;;24.67;85.38
46303;BME280;32029;51.358;5.628;2023-07-24T13:02:25;99996.25;;;24.28;85.63
46303;BME280;32029;51.358;5.628;2023-07-24T13:04:52;100045.50;;;24.39;84.84
46303;BME280;32029;51.358;5.628;2023-07-24T13:07:19;100023.13;;;24.05;87.15
46303;BME280;32029;51.358;5.628;2023-07-24T13:09:45;100018.22;;;23.92;93.60
46303;BME280;32029;51.358;5.628;2023-07-24T13:12:12;100013.56;;;23.82;98.74
46303;BME280;32029;51.358;5.628;2023-07-24T13:14:39;100034.88;;;23.78;98.83
46303;BME280;32029;51.358;5.628;2023-07-24T13:17:06;99998.69;;;23.53;100.00
46303;BME280;32029;51.358;5.628;2023-07-24T13:19:33;100036.53;;;23.79;97.52
46303;BME280;32029;51.358;5.628;2023-07-24T13:22:00;100032.72;;;23.70;96.56
46303;BME280;32029;51.358;5.628;2023-07-24T13:24:27;99991.44;;;23.46;100.00
46303;BME280;32029;51.358;5.628;2023-07-24T13:26:53;100019.66;;;23.89;98.56
46303;BME280;32029;51.358;5.628;2023-07-24T13:29:20;99994.34;;;24.00;97.75
46303;BME280;32029;51.358;5.628;2023-07-24T13:31:47;99973.53;;;24.06;95.47
46303;BME280;32029;51.358;5.628;2023-07-24T13:34:13;99983.38;;;24.27;96.19
46303;BME280;32029;51.358;5.628;2023-07-24T13:36:43;100016.59;;;24.63;92.60
46303;BME280;32029;51.358;5.628;2023-07-24T13:39:10;100001.44;;;24.64;94.36
46303;BME280;32029;51.358;5.628;2023-07-24T13:41:38;99995.16;;;24.72;93.06
46303;BME280;32029;51.358;5.628;2023-07-24T13:44:06;99993.59;;;24.85;91.78
46303;BME280;32029;51.358;5.628;2023-07-24T13:46:33;99989.56;;;24.91;91.30
46303;BME280;32029;51.358;5.628;2023-07-24T13:49:00;100017.66;;;25.10;90.43
46303;BME280;32029;51.358;5.628;2023-07-24T13:51:27;99975.38;;;24.82;89.41
46303;BME280;32029;51.358;5.628;2023-07-24T13:53:54;99976.91;;;24.75;91.23
46303;BME280;32029;51.358;5.628;2023-07-24T13:56:21;99983.22;;;24.85;89.20
46303;BME280;32029;51.358;5.628;2023-07-24T13:58:52;99954.91;;;24.63;88.20
46303;BME280;32029;51.358;5.628;2023-07-24T14:01:19;99986.47;;;24.74;88.48
46303;BME280;32029;51.358;5.628;2023-07-24T14:03:47;99959.97;;;24.61;90.89
46303;BME280;32029;51.358;5.628;2023-07-24T14:06:15;99972.47;;;24.68;88.79
46303;BME280;32029;51.358;5.628;2023-07-24T14:08:43;99961.19;;;24.55;90.42
46303;BME280;32029;51.358;5.628;2023-07-24T14:11:10;100007.44;;;24.76;87.68
46303;BME280;32029;51.358;5.628;2023-07-24T14:13:38;99998.94;;;24.62;88.26
46303;BME280;32029;51.358;5.628;2023-07-24T14:16:06;100001.13;;;24.47;87.37
46303;BME280;32029;51.358;5.628;2023-07-24T14:18:34;100015.88;;;24.28;87.75
46303;BME280;32029;51.358;5.628;2023-07-24T14:21:00;100045.63;;;24.24;88.14
46303;BME280;32029;51.358;5.628;2023-07-24T14:23:28;99993.81;;;23.68;90.63
46303;BME280;32029;51.358;5.628;2023-07-24T14:25:56;100051.69;;;23.78;93.74
46303;BME280;32029;51.358;5.628;2023-07-24T14:28:24;100092.47;;;23.50;98.46
46303;BME280;32029;51.358;5.628;2023-07-24T14:30:50;100082.47;;;22.94;100.00
46303;BME280;32029;51.358;5.628;2023-07-24T14:33:17;100024.00;;;22.13;100.00
46303;BME280;32029;51.358;5.628;2023-07-24T14:35:44;100062.31;;;21.66;100.00
46303;BME280;32029;51.358;5.628;2023-07-24T14:38:10;100054.69;;;21.16;100.00
46303;BME280;32029;51.358;5.628;2023-07-24T14:40:37;100058.69;;;20.57;100.00
46303;BME280;32029;51.358;5.628;2023-07-24T14:43:04;100052.22;;;19.99;100.00
46303;BME280;32029;51.358;5.628;2023-07-24T14:45:30;100033.88;;;19.66;100.00
46303;BME280;32029;51.358;5.628;2023-07-24T14:47:57;100016.34;;;19.38;100.00
46303;BME280;32029;51.358;5.628;2023-07-24T14:50:24;100051.28;;;19.51;100.00
46303;BME280;32029;51.358;5.628;2023-07-24T14:52:51;100044.31;;;19.53;100.00
46303;BME280;32029;51.358;5.628;2023-07-24T14:55:17;100025.91;;;19.47;100.00
46303;BME280;32029;51.358;5.628;2023-07-24T14:57:44;100047.84;;;19.71;100.00
46303;BME280;32029;51.358;5.628;2023-07-24T15:00:11;100047.97;;;19.86;100.00
46303;BME280;32029;51.358;5.628;2023-07-24T15:02:38;100046.38;;;20.00;100.00
46303;BME280;32029;51.358;5.628;2023-07-24T15:05:05;100047.56;;;20.10;100.00
46303;BME280;32029;51.358;5.628;2023-07-24T15:07:32;100012.31;;;19.88;100.00
46303;BME280;32029;51.358;5.628;2023-07-24T15:09:59;100051.22;;;20.20;100.00
46303;BME280;32029;51.358;5.628;2023-07-24T15:12:25;100042.59;;;20.17;100.00
46303;BME280;32029;51.358;5.628;2023-07-24T15:14:52;100060.16;;;20.22;100.00
46303;BME280;32029;51.358;5.628;2023-07-24T15:17:19;100037.25;;;20.10;100.00
46303;BME280;32029;51.358;5.628;2023-07-24T15:19:46;100068.84;;;20.31;100.00
46303;BME280;32029;51.358;5.628;2023-07-24T15:22:12;100077.31;;;20.51;100.00
46303;BME280;32029;51.358;5.628;2023-07-24T15:24:40;100093.03;;;20.68;100.00
46303;BME280;32029;51.358;5.628;2023-07-24T15:27:08;100008.97;;;20.34;100.00
46303;BME280;32029;51.358;5.628;2023-07-24T15:29:36;100080.84;;;20.84;100.00
46303;BME280;32029;51.358;5.628;2023-07-24T15:32:04;100072.16;;;20.75;100.00
46303;BME280;32029;51.358;5.628;2023-07-24T15:34:31;100082.44;;;20.65;100.00
46303;BME280;32029;51.358;5.628;2023-07-24T15:36:57;100044.97;;;20.45;100.00
46303;BME280;32029;51.358;5.628;2023-07-24T15:39:24;100063.13;;;20.53;100.00
46303;BME280;32029;51.358;5.628;2023-07-24T15:41:51;100050.59;;;20.55;100.00
46303;BME280;32029;51.358;5.628;2023-07-24T15:44:18;100078.81;;;20.74;100.00
46303;BME280;32029;51.358;5.628;2023-07-24T15:46:44;100060.13;;;20.65;100.00
46303;BME280;32029;51.358;5.628;2023-07-24T15:49:13;100074.38;;;20.73;100.00
46303;BME280;32029;51.358;5.628;2023-07-24T15:51:40;100067.97;;;20.73;100.00
46303;BME280;32029;51.358;5.628;2023-07-24T15:54:07;100073.28;;;20.79;100.00
46303;BME280;32029;51.358;5.628;2023-07-24T15:56:38;100062.44;;;20.83;100.00
46303;BME280;32029;51.358;5.628;2023-07-24T15:59:05;100076.97;;;21.05;100.00
46303;BME280;32029;51.358;5.628;2023-07-24T16:01:32;100050.78;;;21.07;100.00
46303;BME280;32029;51.358;5.628;2023-07-24T16:03:59;100065.63;;;21.33;100.00
46303;BME280;32029;51.358;5.628;2023-07-24T16:06:25;100075.44;;;21.66;100.00
46303;BME280;32029;51.358;5.628;2023-07-24T16:08:52;100060.91;;;21.64;100.00
46303;BME280;32029;51.358;5.628;2023-07-24T16:11:19;100055.91;;;21.56;100.00
46303;BME280;32029;51.358;5.628;2023-07-24T16:13:45;100072.09;;;21.53;100.00
46303;BME280;32029;51.358;5.628;2023-07-24T16:16:12;100080.75;;;21.62;100.00
46303;BME280;32029;51.358;5.628;2023-07-24T16:18:39;100088.84;;;21.64;100.00
46303;BME280;32029;51.358;5.628;2023-07-24T16:21:05;100093.88;;;21.62;100.00
46303;BME280;32029;51.358;5.628;2023-07-24T16:23:32;100079.91;;;21.51;100.00
46303;BME280;32029;51.358;5.628;2023-07-24T16:25:59;100086.25;;;21.32;100.00
46303;BME280;32029;51.358;5.628;2023-07-24T16:28:25;100104.94;;;21.26;100.00
46303;BME280;32029;51.358;5.628;2023-07-24T16:30:52;100116.06;;;21.11;100.00
46303;BME280;32029;51.358;5.628;2023-07-24T16:33:23;100109.25;;;20.86;100.00
46303;BME280;32029;51.358;5.628;2023-07-24T16:35:51;100107.50;;;20.60;100.00
46303;BME280;32029;51.358;5.628;2023-07-24T16:38:17;100121.97;;;20.57;100.00
46303;BME280;32029;51.358;5.628;2023-07-24T16:40:44;100122.38;;;20.38;100.00
46303;BME280;32029;51.358;5.628;2023-07-24T16:43:11;100105.25;;;20.19;100.00
46303;BME280;32029;51.358;5.628;2023-07-24T16:45:38;100110.28;;;20.17;100.00
46303;BME280;32029;51.358;5.628;2023-07-24T16:48:05;100127.28;;;20.21;100.00
46303;BME280;32029;51.358;5.628;2023-07-24T16:50:32;100110.78;;;20.09;100.00
46303;BME280;32029;51.358;5.628;2023-07-24T16:53:00;100121.22;;;20.34;100.00
46303;BME280;32029;51.358;5.628;2023-07-24T16:55:27;100125.34;;;20.64;100.00
46303;BME280;32029;51.358;5.628;2023-07-24T16:57:54;100139.47;;;21.10;100.00
46303;BME280;32029;51.358;5.628;2023-07-24T17:00:20;100139.31;;;21.37;100.00
46303;BME280;32029;51.358;5.628;2023-07-24T17:02:47;100139.91;;;21.59;100.00
46303;BME280;32029;51.358;5.628;2023-07-24T17:05:14;100132.41;;;21.70;100.00
46303;BME280;32029;51.358;5.628;2023-07-24T17:07:41;100131.00;;;21.83;100.00
46303;BME280;32029;51.358;5.628;2023-07-24T17:10:08;100127.38;;;21.82;100.00
46303;BME280;32029;51.358;5.628;2023-07-24T17:12:35;100135.19;;;21.90;100.00
46303;BME280;32029;51.358;5.628;2023-07-24T17:15:02;100146.94;;;21.92;100.00
46303;BME280;32029;51.358;5.628;2023-07-24T17:17:29;100151.38;;;21.88;100.00
46303;BME280;32029;51.358;5.628;2023-07-24T17:19:56;100043.53;;;21.16;100.00
46303;BME280;32029;51.358;5.628;2023-07-24T17:22:23;100159.19;;;21.76;100.00
46303;BME280;32029;51.358;5.628;2023-07-24T17:24:51;100153.06;;;21.69;100.00
46303;BME280;32029;51.358;5.628;2023-07-24T17:27:18;100148.03;;;21.66;100.00
46303;BME280;32029;51.358;5.628;2023-07-24T17:29:44;100143.53;;;21.60;100.00
46303;BME280;32029;51.358;5.628;2023-07-24T17:32:12;100140.75;;;21.55;100.00
46303;BME280;32029;51.358;5.628;2023-07-24T17:34:40;100169.25;;;21.62;100.00
46303;BME280;32029;51.358;5.628;2023-07-24T17:37:07;100059.13;;;20.91;100.00
46303;BME280;32029;51.358;5.628;2023-07-24T17:44:48;100174.28;;;21.95;100.00
46303;BME280;32029;51.358;5.628;2023-07-24T17:47:18;100136.88;;;21.96;100.00
46303;BME280;32029;51.358;5.628;2023-07-24T17:49:47;100167.88;;;22.15;100.00
46303;BME280;32029;51.358;5.628;2023-07-24T17:52:14;100173.47;;;22.10;100.00
46303;BME280;32029;51.358;5.628;2023-07-24T17:54:45;100179.03;;;22.10;100.00
46303;BME280;32029;51.358;5.628;2023-07-24T17:57:14;100198.34;;;22.37;100.00
46303;BME280;32029;51.358;5.628;2023-07-24T17:59:41;100203.34;;;22.61;100.00
46303;BME280;32029;51.358;5.628;2023-07-24T18:02:09;100204.72;;;22.79;100.00
46303;BME280;32029;51.358;5.628;2023-07-24T18:04:35;100192.69;;;22.78;100.00
46303;BME280;32029;51.358;5.628;2023-07-24T18:07:02;100203.31;;;22.76;100.00
46303;BME280;32029;51.358;5.628;2023-07-24T18:09:29;100206.13;;;22.71;100.00
46303;BME280;32029;51.358;5.628;2023-07-24T18:11:56;100204.50;;;22.55;100.00
46303;BME280;32029;51.358;5.628;2023-07-24T18:17:01;100210.66;;;22.21;100.00
46303;BME280;32029;51.358;5.628;2023-07-24T18:22:08;100170.66;;;21.69;100.00
46303;BME280;32029;51.358;5.628;2023-07-24T18:24:35;100201.06;;;21.76;100.00
46303;BME280;32029;51.358;5.628;2023-07-24T18:27:02;100221.19;;;21.83;100.00
46303;BME280;32029;51.358;5.628;2023-07-24T18:29:28;100203.28;;;21.59;100.00
46303;BME280;32029;51.358;5.628;2023-07-24T18:31:56;100199.06;;;21.51;100.00